sensor_id;sensor_type;location;lat;lon;timestamp;temperature;humidity
13808;DHT22;40769;51.512;5.494;2022-09-27T00:01:11;13.00;99.90
13808;DHT22;40769;51.512;5.494;2022-09-27T00:03:37;12.80;99.90
13808;DHT22;40769;51.512;5.494;2022-09-27T00:06:12;12.80;99.90
13808;DHT22;40769;51.512;5.494;2022-09-27T00:08:39;12.80;99.90
13808;DHT22;40769;51.512;5.494;2022-09-27T00:11:09;12.80;99.90
13808;DHT22;40769;51.512;5.494;2022-09-27T00:13:37;12.80;99.90
13808;DHT22;40769;51.512;5.494;2022-09-27T00:16:03;13.30;99.90
13808;DHT22;40769;51.512;5.494;2022-09-27T00:18:30;12.90;99.90
13808;DHT22;40769;51.512;5.494;2022-09-27T00:21:06;12.90;99.90
13808;DHT22;40769;51.512;5.494;2022-09-27T00:23:32;12.90;99.90
13808;DHT22;40769;51.512;5.494;2022-09-27T00:25:59;12.20;99.90
13808;DHT22;40769;51.512;5.494;2022-09-27T00:28:25;13.20;99.90
13808;DHT22;40769;51.512;5.494;2022-09-27T00:30:51;12.90;99.90
13808;DHT22;40769;51.512;5.494;2022-09-27T00:33:17;13.90;99.90
13808;DHT22;40769;51.512;5.494;2022-09-27T00:35:43;12.90;99.90
13808;DHT22;40769;51.512;5.494;2022-09-27T00:38:09;12.90;99.90
13808;DHT22;40769;51.512;5.494;2022-09-27T00:40:35;12.80;99.90
13808;DHT22;40769;51.512;5.494;2022-09-27T00:43:01;12.80;99.90
13808;DHT22;40769;51.512;5.494;2022-09-27T00:45:26;13.10;99.90
13808;DHT22;40769;51.512;5.494;2022-09-27T00:47:59;12.80;99.90
13808;DHT22;40769;51.512;5.494;2022-09-27T00:50:36;12.80;99.90
13808;DHT22;40769;51.512;5.494;2022-09-27T00:53:21;12.90;99.90
13808;DHT22;40769;51.512;5.494;2022-09-27T00:55:58;12.80;99.90
13808;DHT22;40769;51.512;5.494;2022-09-27T00:58:34;12.90;99.90
13808;DHT22;40769;51.512;5.494;2022-09-27T01:01:04;12.90;99.90
13808;DHT22;40769;51.512;5.494;2022-09-27T01:06:09;12.80;99.90
13808;DHT22;40769;51.512;5.494;2022-09-27T01:08:35;12.70;99.90
13808;DHT22;40769;51.512;5.494;2022-09-27T01:11:12;12.70;99.90
13808;DHT22;40769;51.512;5.494;2022-09-27T01:16:39;12.80;99.90
13808;DHT22;40769;51.512;5.494;2022-09-27T01:22:00;12.80;99.90
13808;DHT22;40769;51.512;5.494;2022-09-27T01:24:49;12.90;99.90
13808;DHT22;40769;51.512;5.494;2022-09-27T01:27:48;12.80;99.90
13808;DHT22;40769;51.512;5.494;2022-09-27T01:30:27;12.80;99.90
13808;DHT22;40769;51.512;5.494;2022-09-27T01:36:14;12.90;99.90
13808;DHT22;40769;51.512;5.494;2022-09-27T01:38:46;12.90;99.90
13808;DHT22;40769;51.512;5.494;2022-09-27T01:46:49;12.80;99.90
13808;DHT22;40769;51.512;5.494;2022-09-27T01:49:23;12.80;99.90
13808;DHT22;40769;51.512;5.494;2022-09-27T01:51:57;12.80;99.90
13808;DHT22;40769;51.512;5.494;2022-09-27T01:54:30;12.80;99.90
13808;DHT22;40769;51.512;5.494;2022-09-27T01:56:59;13.00;99.90
13808;DHT22;40769;51.512;5.494;2022-09-27T01:59:30;12.70;99.90
13808;DHT22;40769;51.512;5.494;2022-09-27T02:02:02;12.70;99.90
13808;DHT22;40769;51.512;5.494;2022-09-27T02:04:31;12.60;99.90
13808;DHT22;40769;51.512;5.494;2022-09-27T02:08:01;12.70;99.90
13808;DHT22;40769;51.512;5.494;2022-09-27T02:10:15;12.50;99.90
13808;DHT22;40769;51.512;5.494;2022-09-27T02:12:51;12.50;99.90
13808;DHT22;40769;51.512;5.494;2022-09-27T02:15:22;12.40;99.90
13808;DHT22;40769;51.512;5.494;2022-09-27T02:18:01;12.40;99.90
13808;DHT22;40769;51.512;5.494;2022-09-27T02:20:39;12.40;99.90
13808;DHT22;40769;51.512;5.494;2022-09-27T02:26:23;12.40;99.90
13808;DHT22;40769;51.512;5.494;2022-09-27T02:29:04;12.40;99.90
13808;DHT22;40769;51.512;5.494;2022-09-27T02:31:33;12.40;99.90
13808;DHT22;40769;51.512;5.494;2022-09-27T02:34:03;12.50;99.90
13808;DHT22;40769;51.512;5.494;2022-09-27T02:36:30;12.40;99.90
13808;DHT22;40769;51.512;5.494;2022-09-27T02:38:55;12.40;99.90
13808;DHT22;40769;51.512;5.494;2022-09-27T02:41:22;12.40;99.90
13808;DHT22;40769;51.512;5.494;2022-09-27T02:43:51;12.40;99.90
13808;DHT22;40769;51.512;5.494;2022-09-27T02:52:28;12.40;99.90
13808;DHT22;40769;51.512;5.494;2022-09-27T02:55:13;12.40;99.90
13808;DHT22;40769;51.512;5.494;2022-09-27T03:03:19;12.20;99.90
13808;DHT22;40769;51.512;5.494;2022-09-27T03:06:06;12.20;99.90
13808;DHT22;40769;51.512;5.494;2022-09-27T03:08:33;12.10;99.90
13808;DHT22;40769;51.512;5.494;2022-09-27T03:10:59;12.10;99.90
13808;DHT22;40769;51.512;5.494;2022-09-27T03:13:25;12.10;99.90
13808;DHT22;40769;51.512;5.494;2022-09-27T03:15:51;12.00;99.90
13808;DHT22;40769;51.512;5.494;2022-09-27T03:18:17;13.10;99.90
13808;DHT22;40769;51.512;5.494;2022-09-27T03:20:43;12.00;99.90
13808;DHT22;40769;51.512;5.494;2022-09-27T03:23:08;11.90;99.90
13808;DHT22;40769;51.512;5.494;2022-09-27T03:25:34;12.00;99.90
13808;DHT22;40769;51.512;5.494;2022-09-27T03:28:00;11.80;99.90
13808;DHT22;40769;51.512;5.494;2022-09-27T03:30:26;11.80;99.90
13808;DHT22;40769;51.512;5.494;2022-09-27T03:32:51;11.80;99.90
13808;DHT22;40769;51.512;5.494;2022-09-27T03:35:17;11.70;99.90
13808;DHT22;40769;51.512;5.494;2022-09-27T03:37:43;11.70;99.90
13808;DHT22;40769;51.512;5.494;2022-09-27T03:40:09;11.70;99.90
13808;DHT22;40769;51.512;5.494;2022-09-27T03:42:35;11.60;99.90
13808;DHT22;40769;51.512;5.494;2022-09-27T03:45:01;11.60;99.90
13808;DHT22;40769;51.512;5.494;2022-09-27T03:47:26;11.60;99.90
13808;DHT22;40769;51.512;5.494;2022-09-27T03:49:52;11.60;99.90
13808;DHT22;40769;51.512;5.494;2022-09-27T03:52:17;12.00;99.90
13808;DHT22;40769;51.512;5.494;2022-09-27T03:54:43;11.80;99.90
13808;DHT22;40769;51.512;5.494;2022-09-27T03:57:09;11.70;99.90
13808;DHT22;40769;51.512;5.494;2022-09-27T03:59:35;11.70;99.90
13808;DHT22;40769;51.512;5.494;2022-09-27T04:02:01;11.70;99.90
13808;DHT22;40769;51.512;5.494;2022-09-27T04:04:26;12.20;99.90
13808;DHT22;40769;51.512;5.494;2022-09-27T04:06:52;12.40;99.90
13808;DHT22;40769;51.512;5.494;2022-09-27T04:09:17;12.10;99.90
13808;DHT22;40769;51.512;5.494;2022-09-27T04:11:43;12.00;99.90
13808;DHT22;40769;51.512;5.494;2022-09-27T04:14:08;12.00;99.90
13808;DHT22;40769;51.512;5.494;2022-09-27T04:16:37;12.00;99.90
13808;DHT22;40769;51.512;5.494;2022-09-27T04:19:03;11.90;99.90
13808;DHT22;40769;51.512;5.494;2022-09-27T04:21:29;11.90;99.90
13808;DHT22;40769;51.512;5.494;2022-09-27T04:23:54;11.80;99.90
13808;DHT22;40769;51.512;5.494;2022-09-27T04:26:20;11.70;99.90
13808;DHT22;40769;51.512;5.494;2022-09-27T04:28:46;11.70;99.90
13808;DHT22;40769;51.512;5.494;2022-09-27T04:31:12;12.20;99.90
13808;DHT22;40769;51.512;5.494;2022-09-27T04:33:37;11.70;99.90
13808;DHT22;40769;51.512;5.494;2022-09-27T04:36:03;11.70;99.90
13808;DHT22;40769;51.512;5.494;2022-09-27T04:38:47;11.70;99.90
13808;DHT22;40769;51.512;5.494;2022-09-27T04:41:13;11.80;99.90
13808;DHT22;40769;51.512;5.494;2022-09-27T04:43:39;11.90;99.90
13808;DHT22;40769;51.512;5.494;2022-09-27T04:46:05;11.90;99.90
13808;DHT22;40769;51.512;5.494;2022-09-27T04:48:31;12.30;99.90
13808;DHT22;40769;51.512;5.494;2022-09-27T04:51:01;12.00;99.90
13808;DHT22;40769;51.512;5.494;2022-09-27T04:53:27;12.00;99.90
13808;DHT22;40769;51.512;5.494;2022-09-27T04:55:54;12.00;99.90
13808;DHT22;40769;51.512;5.494;2022-09-27T04:58:21;12.60;99.90
13808;DHT22;40769;51.512;5.494;2022-09-27T05:00:48;11.90;99.90
13808;DHT22;40769;51.512;5.494;2022-09-27T05:03:14;11.90;99.90
13808;DHT22;40769;51.512;5.494;2022-09-27T05:05:40;11.80;99.90
13808;DHT22;40769;51.512;5.494;2022-09-27T05:08:06;11.80;99.90
13808;DHT22;40769;51.512;5.494;2022-09-27T05:10:32;11.70;99.90
13808;DHT22;40769;51.512;5.494;2022-09-27T05:12:58;11.80;99.90
13808;DHT22;40769;51.512;5.494;2022-09-27T05:15:23;11.50;99.90
13808;DHT22;40769;51.512;5.494;2022-09-27T05:17:52;11.60;99.90
13808;DHT22;40769;51.512;5.494;2022-09-27T05:20:18;11.60;99.90
13808;DHT22;40769;51.512;5.494;2022-09-27T05:22:44;11.50;99.90
13808;DHT22;40769;51.512;5.494;2022-09-27T05:25:10;11.50;99.90
13808;DHT22;40769;51.512;5.494;2022-09-27T05:27:36;12.10;99.90
13808;DHT22;40769;51.512;5.494;2022-09-27T05:30:03;11.40;99.90
13808;DHT22;40769;51.512;5.494;2022-09-27T05:32:28;11.40;99.90
13808;DHT22;40769;51.512;5.494;2022-09-27T05:34:54;11.40;99.90
13808;DHT22;40769;51.512;5.494;2022-09-27T05:37:20;12.40;99.90
13808;DHT22;40769;51.512;5.494;2022-09-27T05:39:46;11.50;99.90
13808;DHT22;40769;51.512;5.494;2022-09-27T05:42:12;11.50;99.90
13808;DHT22;40769;51.512;5.494;2022-09-27T05:44:40;11.60;99.90
13808;DHT22;40769;51.512;5.494;2022-09-27T05:47:06;11.50;99.90
13808;DHT22;40769;51.512;5.494;2022-09-27T05:49:32;11.60;99.90
13808;DHT22;40769;51.512;5.494;2022-09-27T05:51:58;11.60;99.90
13808;DHT22;40769;51.512;5.494;2022-09-27T05:54:24;11.70;99.90
13808;DHT22;40769;51.512;5.494;2022-09-27T05:56:54;11.70;99.90
13808;DHT22;40769;51.512;5.494;2022-09-27T05:59:23;11.80;99.90
13808;DHT22;40769;51.512;5.494;2022-09-27T06:01:50;11.70;99.90
13808;DHT22;40769;51.512;5.494;2022-09-27T06:04:16;11.80;99.90
13808;DHT22;40769;51.512;5.494;2022-09-27T06:06:42;11.80;99.90
13808;DHT22;40769;51.512;5.494;2022-09-27T06:09:13;11.80;99.90
13808;DHT22;40769;51.512;5.494;2022-09-27T06:11:41;12.10;99.90
13808;DHT22;40769;51.512;5.494;2022-09-27T06:14:08;12.10;99.90
13808;DHT22;40769;51.512;5.494;2022-09-27T06:16:34;12.40;99.90
13808;DHT22;40769;51.512;5.494;2022-09-27T06:18:59;11.80;99.90
13808;DHT22;40769;51.512;5.494;2022-09-27T06:21:28;11.70;99.90
13808;DHT22;40769;51.512;5.494;2022-09-27T06:23:53;11.60;99.90
13808;DHT22;40769;51.512;5.494;2022-09-27T06:26:20;11.70;99.90
13808;DHT22;40769;51.512;5.494;2022-09-27T06:28:46;11.60;99.90
13808;DHT22;40769;51.512;5.494;2022-09-27T06:31:12;11.60;99.90
13808;DHT22;40769;51.512;5.494;2022-09-27T06:33:38;11.50;99.90
13808;DHT22;40769;51.512;5.494;2022-09-27T06:36:05;11.50;99.90
13808;DHT22;40769;51.512;5.494;2022-09-27T06:38:31;11.40;99.90
13808;DHT22;40769;51.512;5.494;2022-09-27T06:41:00;11.40;99.90
13808;DHT22;40769;51.512;5.494;2022-09-27T06:43:26;11.40;99.90
13808;DHT22;40769;51.512;5.494;2022-09-27T06:45:52;11.40;99.90
13808;DHT22;40769;51.512;5.494;2022-09-27T06:48:18;11.50;99.90
13808;DHT22;40769;51.512;5.494;2022-09-27T06:50:45;11.40;99.90
13808;DHT22;40769;51.512;5.494;2022-09-27T06:53:13;11.90;99.90
13808;DHT22;40769;51.512;5.494;2022-09-27T06:55:39;11.50;99.90
13808;DHT22;40769;51.512;5.494;2022-09-27T06:58:05;11.90;99.90
13808;DHT22;40769;51.512;5.494;2022-09-27T07:00:50;11.70;99.90
13808;DHT22;40769;51.512;5.494;2022-09-27T07:03:17;11.90;99.90
13808;DHT22;40769;51.512;5.494;2022-09-27T07:05:56;11.60;99.90
13808;DHT22;40769;51.512;5.494;2022-09-27T07:08:23;11.60;99.90
13808;DHT22;40769;51.512;5.494;2022-09-27T07:10:50;11.60;99.90
13808;DHT22;40769;51.512;5.494;2022-09-27T07:13:17;11.60;99.90
13808;DHT22;40769;51.512;5.494;2022-09-27T07:15:43;11.60;99.90
13808;DHT22;40769;51.512;5.494;2022-09-27T07:18:08;11.60;99.90
13808;DHT22;40769;51.512;5.494;2022-09-27T07:20:35;11.60;99.90
13808;DHT22;40769;51.512;5.494;2022-09-27T07:23:03;11.60;99.90
13808;DHT22;40769;51.512;5.494;2022-09-27T07:25:30;12.20;99.90
13808;DHT22;40769;51.512;5.494;2022-09-27T07:28:04;11.70;99.90
13808;DHT22;40769;51.512;5.494;2022-09-27T07:30:30;12.10;99.90
13808;DHT22;40769;51.512;5.494;2022-09-27T07:32:58;11.70;99.90
13808;DHT22;40769;51.512;5.494;2022-09-27T07:35:24;13.10;99.90
13808;DHT22;40769;51.512;5.494;2022-09-27T07:37:50;12.00;99.90
13808;DHT22;40769;51.512;5.494;2022-09-27T07:40:17;12.70;99.90
13808;DHT22;40769;51.512;5.494;2022-09-27T07:42:43;11.80;99.90
13808;DHT22;40769;51.512;5.494;2022-09-27T07:45:15;11.80;99.90
13808;DHT22;40769;51.512;5.494;2022-09-27T07:47:41;11.90;99.90
13808;DHT22;40769;51.512;5.494;2022-09-27T07:50:08;11.90;99.90
13808;DHT22;40769;51.512;5.494;2022-09-27T07:52:41;12.30;99.90
13808;DHT22;40769;51.512;5.494;2022-09-27T07:55:11;11.90;99.90
13808;DHT22;40769;51.512;5.494;2022-09-27T07:57:38;12.10;99.90
13808;DHT22;40769;51.512;5.494;2022-09-27T08:00:08;12.00;99.90
13808;DHT22;40769;51.512;5.494;2022-09-27T08:02:34;12.00;99.90
13808;DHT22;40769;51.512;5.494;2022-09-27T08:05:00;13.30;99.90
13808;DHT22;40769;51.512;5.494;2022-09-27T08:07:29;12.10;99.90
13808;DHT22;40769;51.512;5.494;2022-09-27T08:09:57;12.10;99.90
13808;DHT22;40769;51.512;5.494;2022-09-27T08:12:22;12.90;99.90
13808;DHT22;40769;51.512;5.494;2022-09-27T08:14:48;12.10;99.90
13808;DHT22;40769;51.512;5.494;2022-09-27T08:17:15;12.20;99.90
13808;DHT22;40769;51.512;5.494;2022-09-27T08:19:40;12.20;99.90
13808;DHT22;40769;51.512;5.494;2022-09-27T08:22:07;12.20;99.90
13808;DHT22;40769;51.512;5.494;2022-09-27T08:24:33;12.30;99.90
13808;DHT22;40769;51.512;5.494;2022-09-27T08:26:59;12.40;99.90
13808;DHT22;40769;51.512;5.494;2022-09-27T08:29:25;13.00;99.90
13808;DHT22;40769;51.512;5.494;2022-09-27T08:31:51;12.40;99.90
13808;DHT22;40769;51.512;5.494;2022-09-27T08:34:18;12.40;99.90
13808;DHT22;40769;51.512;5.494;2022-09-27T08:36:43;12.40;99.90
13808;DHT22;40769;51.512;5.494;2022-09-27T08:39:09;12.40;99.90
13808;DHT22;40769;51.512;5.494;2022-09-27T08:41:37;12.40;99.90
13808;DHT22;40769;51.512;5.494;2022-09-27T08:44:12;12.30;99.90
13808;DHT22;40769;51.512;5.494;2022-09-27T08:47:04;12.40;99.90
13808;DHT22;40769;51.512;5.494;2022-09-27T08:52:51;12.40;99.90
13808;DHT22;40769;51.512;5.494;2022-09-27T08:58:18;12.50;99.90
13808;DHT22;40769;51.512;5.494;2022-09-27T09:00:49;12.60;99.90
13808;DHT22;40769;51.512;5.494;2022-09-27T09:03:18;12.60;99.90
13808;DHT22;40769;51.512;5.494;2022-09-27T09:09:00;12.80;99.90
13808;DHT22;40769;51.512;5.494;2022-09-27T09:17:39;12.90;99.90
13808;DHT22;40769;51.512;5.494;2022-09-27T09:23:25;12.90;99.90
13808;DHT22;40769;51.512;5.494;2022-09-27T09:26:01;12.90;99.90
13808;DHT22;40769;51.512;5.494;2022-09-27T09:34:22;13.00;99.90
13808;DHT22;40769;51.512;5.494;2022-09-27T09:37:00;13.00;99.90
13808;DHT22;40769;51.512;5.494;2022-09-27T09:42:13;13.10;99.90
13808;DHT22;40769;51.512;5.494;2022-09-27T09:44:51;13.10;99.90
13808;DHT22;40769;51.512;5.494;2022-09-27T09:47:46;13.10;99.90
13808;DHT22;40769;51.512;5.494;2022-09-27T09:50:25;13.10;99.90
13808;DHT22;40769;51.512;5.494;2022-09-27T09:53:14;13.10;99.90
13808;DHT22;40769;51.512;5.494;2022-09-27T09:55:47;13.10;99.90
13808;DHT22;40769;51.512;5.494;2022-09-27T09:58:36;13.20;99.90
13808;DHT22;40769;51.512;5.494;2022-09-27T10:01:20;13.10;99.90
13808;DHT22;40769;51.512;5.494;2022-09-27T10:03:47;13.00;99.90
13808;DHT22;40769;51.512;5.494;2022-09-27T10:06:14;13.00;99.90
13808;DHT22;40769;51.512;5.494;2022-09-27T10:08:40;13.20;99.90
13808;DHT22;40769;51.512;5.494;2022-09-27T10:11:16;13.30;99.90
13808;DHT22;40769;51.512;5.494;2022-09-27T10:13:43;12.90;99.90
13808;DHT22;40769;51.512;5.494;2022-09-27T10:16:11;13.00;99.90
13808;DHT22;40769;51.512;5.494;2022-09-27T10:18:39;12.90;99.90
13808;DHT22;40769;51.512;5.494;2022-09-27T10:21:13;13.00;99.90
13808;DHT22;40769;51.512;5.494;2022-09-27T10:24:12;12.90;99.90
13808;DHT22;40769;51.512;5.494;2022-09-27T10:26:40;12.90;99.90
13808;DHT22;40769;51.512;5.494;2022-09-27T10:29:26;12.80;99.90
13808;DHT22;40769;51.512;5.494;2022-09-27T10:31:53;12.80;99.90
13808;DHT22;40769;51.512;5.494;2022-09-27T10:34:34;12.70;99.90
13808;DHT22;40769;51.512;5.494;2022-09-27T10:37:15;12.70;99.90
13808;DHT22;40769;51.512;5.494;2022-09-27T10:39:43;12.70;99.90
13808;DHT22;40769;51.512;5.494;2022-09-27T10:42:34;12.70;99.90
13808;DHT22;40769;51.512;5.494;2022-09-27T10:45:35;12.80;99.90
13808;DHT22;40769;51.512;5.494;2022-09-27T10:48:01;12.80;99.90
13808;DHT22;40769;51.512;5.494;2022-09-27T10:50:30;12.80;99.90
13808;DHT22;40769;51.512;5.494;2022-09-27T10:55:36;12.70;99.90
13808;DHT22;40769;51.512;5.494;2022-09-27T10:58:04;12.70;99.90
13808;DHT22;40769;51.512;5.494;2022-09-27T11:00:32;12.90;99.90
13808;DHT22;40769;51.512;5.494;2022-09-27T11:03:11;12.70;99.90
13808;DHT22;40769;51.512;5.494;2022-09-27T11:05:38;12.70;99.90
13808;DHT22;40769;51.512;5.494;2022-09-27T11:08:41;12.70;99.90
13808;DHT22;40769;51.512;5.494;2022-09-27T11:11:25;12.70;99.90
13808;DHT22;40769;51.512;5.494;2022-09-27T11:16:38;12.70;99.90
13808;DHT22;40769;51.512;5.494;2022-09-27T11:24:41;12.80;99.90
13808;DHT22;40769;51.512;5.494;2022-09-27T11:30:14;12.90;99.90
13808;DHT22;40769;51.512;5.494;2022-09-27T11:33:05;13.00;99.90
13808;DHT22;40769;51.512;5.494;2022-09-27T11:35:38;13.40;99.90
13808;DHT22;40769;51.512;5.494;2022-09-27T11:46:51;13.40;99.90
13808;DHT22;40769;51.512;5.494;2022-09-27T11:49:49;13.50;99.90
13808;DHT22;40769;51.512;5.494;2022-09-27T11:52:30;13.60;99.90
13808;DHT22;40769;51.512;5.494;2022-09-27T12:00:21;13.80;99.90
13808;DHT22;40769;51.512;5.494;2022-09-27T12:03:17;13.90;99.90
13808;DHT22;40769;51.512;5.494;2022-09-27T12:06:02;14.00;99.90
13808;DHT22;40769;51.512;5.494;2022-09-27T12:08:32;14.10;99.90
13808;DHT22;40769;51.512;5.494;2022-09-27T12:11:09;14.20;99.90
13808;DHT22;40769;51.512;5.494;2022-09-27T12:13:44;14.20;99.90
13808;DHT22;40769;51.512;5.494;2022-09-27T12:16:11;14.40;99.90
13808;DHT22;40769;51.512;5.494;2022-09-27T12:18:40;14.40;99.90
13808;DHT22;40769;51.512;5.494;2022-09-27T12:21:08;13.90;99.90
13808;DHT22;40769;51.512;5.494;2022-09-27T12:23:47;15.50;99.90
13808;DHT22;40769;51.512;5.494;2022-09-27T12:26:43;14.60;99.90
13808;DHT22;40769;51.512;5.494;2022-09-27T12:29:24;14.60;99.90
13808;DHT22;40769;51.512;5.494;2022-09-27T12:32:17;14.60;99.90
13808;DHT22;40769;51.512;5.494;2022-09-27T12:34:55;14.60;99.90
13808;DHT22;40769;51.512;5.494;2022-09-27T12:37:32;14.60;99.90
13808;DHT22;40769;51.512;5.494;2022-09-27T12:45:15;14.90;99.90
13808;DHT22;40769;51.512;5.494;2022-09-27T12:48:07;14.90;99.90
13808;DHT22;40769;51.512;5.494;2022-09-27T12:50:43;15.00;99.90
13808;DHT22;40769;51.512;5.494;2022-09-27T12:53:22;15.10;99.90
13808;DHT22;40769;51.512;5.494;2022-09-27T13:01:46;15.20;99.90
13808;DHT22;40769;51.512;5.494;2022-09-27T13:12:18;15.10;99.90
13808;DHT22;40769;51.512;5.494;2022-09-27T13:15:02;15.00;99.90
13808;DHT22;40769;51.512;5.494;2022-09-27T13:17:32;15.10;99.90
13808;DHT22;40769;51.512;5.494;2022-09-27T13:19:58;15.10;99.90
13808;DHT22;40769;51.512;5.494;2022-09-27T13:24:53;15.10;99.90
13808;DHT22;40769;51.512;5.494;2022-09-27T13:29:51;15.20;99.90
13808;DHT22;40769;51.512;5.494;2022-09-27T13:32:23;15.20;99.90
13808;DHT22;40769;51.512;5.494;2022-09-27T13:51:27;15.60;99.90
13808;DHT22;40769;51.512;5.494;2022-09-27T13:54:00;15.70;99.90
13808;DHT22;40769;51.512;5.494;2022-09-27T13:59:16;15.90;99.90
13808;DHT22;40769;51.512;5.494;2022-09-27T14:01:51;15.90;99.90
13808;DHT22;40769;51.512;5.494;2022-09-27T14:04:28;16.00;99.90
13808;DHT22;40769;51.512;5.494;2022-09-27T14:06:57;16.00;99.90
13808;DHT22;40769;51.512;5.494;2022-09-27T14:09:32;16.00;99.90
13808;DHT22;40769;51.512;5.494;2022-09-27T14:12:04;16.10;99.90
13808;DHT22;40769;51.512;5.494;2022-09-27T14:14:32;16.10;99.90
13808;DHT22;40769;51.512;5.494;2022-09-27T14:16:59;16.20;99.90
13808;DHT22;40769;51.512;5.494;2022-09-27T14:19:26;16.20;99.90
13808;DHT22;40769;51.512;5.494;2022-09-27T14:21:53;16.20;99.90
13808;DHT22;40769;51.512;5.494;2022-09-27T14:27:13;16.20;99.90
13808;DHT22;40769;51.512;5.494;2022-09-27T14:29:56;16.20;99.90
13808;DHT22;40769;51.512;5.494;2022-09-27T14:32:30;16.00;99.90
13808;DHT22;40769;51.512;5.494;2022-09-27T14:35:16;15.90;99.90
13808;DHT22;40769;51.512;5.494;2022-09-27T14:38:03;15.80;99.90
13808;DHT22;40769;51.512;5.494;2022-09-27T14:40:29;15.70;99.90
13808;DHT22;40769;51.512;5.494;2022-09-27T14:42:58;15.60;99.90
13808;DHT22;40769;51.512;5.494;2022-09-27T14:45:37;15.60;99.90
13808;DHT22;40769;51.512;5.494;2022-09-27T14:51:02;15.30;99.90
13808;DHT22;40769;51.512;5.494;2022-09-27T14:53:30;15.30;99.90
13808;DHT22;40769;51.512;5.494;2022-09-27T14:55:57;15.20;99.90
13808;DHT22;40769;51.512;5.494;2022-09-27T14:58:23;15.10;99.90
13808;DHT22;40769;51.512;5.494;2022-09-27T15:00:53;15.10;99.90
13808;DHT22;40769;51.512;5.494;2022-09-27T15:03:32;15.00;99.90
13808;DHT22;40769;51.512;5.494;2022-09-27T15:06:02;15.00;99.90
13808;DHT22;40769;51.512;5.494;2022-09-27T15:08:29;15.00;99.90
13808;DHT22;40769;51.512;5.494;2022-09-27T15:10:57;15.00;99.90
13808;DHT22;40769;51.512;5.494;2022-09-27T15:13:24;15.20;99.90
13808;DHT22;40769;51.512;5.494;2022-09-27T15:15:52;15.10;99.90
13808;DHT22;40769;51.512;5.494;2022-09-27T15:18:39;15.20;99.90
13808;DHT22;40769;51.512;5.494;2022-09-27T15:21:11;15.10;99.90
13808;DHT22;40769;51.512;5.494;2022-09-27T15:23:42;15.20;99.90
13808;DHT22;40769;51.512;5.494;2022-09-27T15:28:34;15.20;99.90
13808;DHT22;40769;51.512;5.494;2022-09-27T15:31:03;15.20;99.90
13808;DHT22;40769;51.512;5.494;2022-09-27T15:33:30;15.20;99.90
13808;DHT22;40769;51.512;5.494;2022-09-27T15:35:59;15.10;99.90
13808;DHT22;40769;51.512;5.494;2022-09-27T15:41:07;15.10;99.90
13808;DHT22;40769;51.512;5.494;2022-09-27T15:46:25;15.10;99.90
13808;DHT22;40769;51.512;5.494;2022-09-27T15:51:46;15.00;99.90
13808;DHT22;40769;51.512;5.494;2022-09-27T15:54:11;15.00;99.90
13808;DHT22;40769;51.512;5.494;2022-09-27T15:56:40;14.90;99.90
13808;DHT22;40769;51.512;5.494;2022-09-27T15:59:17;14.70;99.90
13808;DHT22;40769;51.512;5.494;2022-09-27T16:01:43;14.50;99.90
13808;DHT22;40769;51.512;5.494;2022-09-27T16:04:10;14.40;99.90
13808;DHT22;40769;51.512;5.494;2022-09-27T16:06:35;14.20;99.90
13808;DHT22;40769;51.512;5.494;2022-09-27T16:09:02;14.00;99.90
13808;DHT22;40769;51.512;5.494;2022-09-27T16:11:28;13.90;99.90
13808;DHT22;40769;51.512;5.494;2022-09-27T16:13:53;13.70;99.90
13808;DHT22;40769;51.512;5.494;2022-09-27T16:16:20;13.60;99.90
13808;DHT22;40769;51.512;5.494;2022-09-27T16:18:47;13.60;99.90
13808;DHT22;40769;51.512;5.494;2022-09-27T16:21:13;13.30;99.90
13808;DHT22;40769;51.512;5.494;2022-09-27T16:23:39;13.60;99.90
13808;DHT22;40769;51.512;5.494;2022-09-27T16:26:05;13.10;99.90
13808;DHT22;40769;51.512;5.494;2022-09-27T16:28:32;13.10;99.90
13808;DHT22;40769;51.512;5.494;2022-09-27T16:31:05;13.00;99.90
13808;DHT22;40769;51.512;5.494;2022-09-27T16:33:32;12.90;99.90
13808;DHT22;40769;51.512;5.494;2022-09-27T16:35:58;12.90;99.90
13808;DHT22;40769;51.512;5.494;2022-09-27T16:38:26;12.80;99.90
13808;DHT22;40769;51.512;5.494;2022-09-27T16:40:59;12.80;99.90
13808;DHT22;40769;51.512;5.494;2022-09-27T16:43:26;12.80;99.90
13808;DHT22;40769;51.512;5.494;2022-09-27T16:45:52;12.80;99.90
13808;DHT22;40769;51.512;5.494;2022-09-27T16:48:17;12.90;99.90
13808;DHT22;40769;51.512;5.494;2022-09-27T16:50:43;12.90;99.90
13808;DHT22;40769;51.512;5.494;2022-09-27T16:53:27;13.20;99.90
13808;DHT22;40769;51.512;5.494;2022-09-27T16:55:58;12.80;99.90
13808;DHT22;40769;51.512;5.494;2022-09-27T16:58:23;12.80;99.90
13808;DHT22;40769;51.512;5.494;2022-09-27T17:00:49;12.80;99.90
13808;DHT22;40769;51.512;5.494;2022-09-27T17:03:14;12.80;99.90
13808;DHT22;40769;51.512;5.494;2022-09-27T17:05:40;12.80;99.90
13808;DHT22;40769;51.512;5.494;2022-09-27T17:08:05;12.90;99.90
13808;DHT22;40769;51.512;5.494;2022-09-27T17:10:31;12.80;99.90
13808;DHT22;40769;51.512;5.494;2022-09-27T17:12:57;12.90;99.90
13808;DHT22;40769;51.512;5.494;2022-09-27T17:15:22;13.70;99.90
13808;DHT22;40769;51.512;5.494;2022-09-27T17:17:49;12.90;99.90
13808;DHT22;40769;51.512;5.494;2022-09-27T17:20:14;13.10;99.90
13808;DHT22;40769;51.512;5.494;2022-09-27T17:22:40;12.90;99.90
13808;DHT22;40769;51.512;5.494;2022-09-27T17:25:06;13.20;99.90
13808;DHT22;40769;51.512;5.494;2022-09-27T17:27:31;13.00;99.90
13808;DHT22;40769;51.512;5.494;2022-09-27T17:29:57;13.00;99.90
13808;DHT22;40769;51.512;5.494;2022-09-27T17:32:23;13.00;99.90
13808;DHT22;40769;51.512;5.494;2022-09-27T17:34:52;13.10;99.90
13808;DHT22;40769;51.512;5.494;2022-09-27T17:37:18;13.00;99.90
13808;DHT22;40769;51.512;5.494;2022-09-27T17:39:44;13.00;99.90
13808;DHT22;40769;51.512;5.494;2022-09-27T17:42:10;13.00;99.90
13808;DHT22;40769;51.512;5.494;2022-09-27T17:44:37;12.90;99.90
13808;DHT22;40769;51.512;5.494;2022-09-27T17:47:03;12.90;99.90
13808;DHT22;40769;51.512;5.494;2022-09-27T17:49:47;12.90;99.90
13808;DHT22;40769;51.512;5.494;2022-09-27T17:52:31;12.90;99.90
13808;DHT22;40769;51.512;5.494;2022-09-27T17:54:59;12.80;99.90
13808;DHT22;40769;51.512;5.494;2022-09-27T17:57:24;12.80;99.90
13808;DHT22;40769;51.512;5.494;2022-09-27T17:59:50;12.80;99.90
13808;DHT22;40769;51.512;5.494;2022-09-27T18:02:16;12.80;99.90
13808;DHT22;40769;51.512;5.494;2022-09-27T18:04:41;12.70;99.90
13808;DHT22;40769;51.512;5.494;2022-09-27T18:07:07;12.70;99.90
13808;DHT22;40769;51.512;5.494;2022-09-27T18:09:33;13.60;99.90
13808;DHT22;40769;51.512;5.494;2022-09-27T18:11:58;12.70;99.90
13808;DHT22;40769;51.512;5.494;2022-09-27T18:14:24;12.70;99.90
13808;DHT22;40769;51.512;5.494;2022-09-27T18:16:51;12.70;99.90